sensor_id;sensor_type;location;lat;lon;timestamp;P1;durP1;ratioP1;P2;durP2;ratioP2
62707;SDS011;48769;51.624;5.886;2023-02-28T00:01:08;23.38;;;13.88;;
62707;SDS011;48769;51.624;5.886;2023-02-28T00:03:33;21.75;;;14.15;;
62707;SDS011;48769;51.624;5.886;2023-02-28T00:06:02;20.42;;;14.98;;
62707;SDS011;48769;51.624;5.886;2023-02-28T00:08:29;19.13;;;14.40;;
62707;SDS011;48769;51.624;5.886;2023-02-28T00:10:54;19.45;;;13.38;;
62707;SDS011;48769;51.624;5.886;2023-02-28T00:13:19;21.40;;;14.77;;
62707;SDS011;48769;51.624;5.886;2023-02-28T00:15:45;17.42;;;13.68;;
62707;SDS011;48769;51.624;5.886;2023-02-28T00:18:10;24.00;;;14.50;;
62707;SDS011;48769;51.624;5.886;2023-02-28T00:20:36;22.48;;;15.23;;
62707;SDS011;48769;51.624;5.886;2023-02-28T00:23:02;18.98;;;14.10;;
62707;SDS011;48769;51.624;5.886;2023-02-28T00:25:27;20.05;;;14.20;;
62707;SDS011;48769;51.624;5.886;2023-02-28T00:27:53;17.83;;;14.20;;
62707;SDS011;48769;51.624;5.886;2023-02-28T00:30:19;20.67;;;14.13;;
62707;SDS011;48769;51.624;5.886;2023-02-28T00:32:47;25.10;;;14.80;;
62707;SDS011;48769;51.624;5.886;2023-02-28T00:35:13;18.42;;;13.15;;
62707;SDS011;48769;51.624;5.886;2023-02-28T00:37:38;26.15;;;15.00;;
62707;SDS011;48769;51.624;5.886;2023-02-28T00:40:04;20.90;;;13.95;;
62707;SDS011;48769;51.624;5.886;2023-02-28T00:42:31;22.58;;;14.23;;
62707;SDS011;48769;51.624;5.886;2023-02-28T00:44:57;22.33;;;14.10;;
62707;SDS011;48769;51.624;5.886;2023-02-28T00:47:22;20.63;;;13.90;;
62707;SDS011;48769;51.624;5.886;2023-02-28T00:49:48;19.77;;;14.35;;
62707;SDS011;48769;51.624;5.886;2023-02-28T00:52:13;20.73;;;14.32;;
62707;SDS011;48769;51.624;5.886;2023-02-28T00:54:38;22.95;;;13.95;;
62707;SDS011;48769;51.624;5.886;2023-02-28T00:57:04;21.55;;;13.57;;
62707;SDS011;48769;51.624;5.886;2023-02-28T00:59:29;22.67;;;14.68;;
62707;SDS011;48769;51.624;5.886;2023-02-28T01:01:54;23.90;;;14.40;;
62707;SDS011;48769;51.624;5.886;2023-02-28T01:04:20;19.40;;;13.77;;
62707;SDS011;48769;51.624;5.886;2023-02-28T01:06:45;18.92;;;13.13;;
62707;SDS011;48769;51.624;5.886;2023-02-28T01:09:11;22.38;;;14.13;;
62707;SDS011;48769;51.624;5.886;2023-02-28T01:11:37;23.20;;;13.65;;
62707;SDS011;48769;51.624;5.886;2023-02-28T01:14:04;19.60;;;13.35;;
62707;SDS011;48769;51.624;5.886;2023-02-28T01:16:29;19.17;;;13.55;;
62707;SDS011;48769;51.624;5.886;2023-02-28T01:18:55;21.85;;;14.82;;
62707;SDS011;48769;51.624;5.886;2023-02-28T01:21:21;21.75;;;14.20;;
62707;SDS011;48769;51.624;5.886;2023-02-28T01:23:47;21.73;;;13.25;;
62707;SDS011;48769;51.624;5.886;2023-02-28T01:26:15;25.85;;;14.18;;
62707;SDS011;48769;51.624;5.886;2023-02-28T01:28:47;21.30;;;13.63;;
62707;SDS011;48769;51.624;5.886;2023-02-28T01:31:14;22.83;;;14.02;;
62707;SDS011;48769;51.624;5.886;2023-02-28T01:33:40;19.30;;;12.77;;
62707;SDS011;48769;51.624;5.886;2023-02-28T01:36:07;23.35;;;13.15;;
62707;SDS011;48769;51.624;5.886;2023-02-28T01:38:35;20.60;;;13.93;;
62707;SDS011;48769;51.624;5.886;2023-02-28T01:41:01;22.08;;;13.93;;
62707;SDS011;48769;51.624;5.886;2023-02-28T01:43:28;22.27;;;13.57;;
62707;SDS011;48769;51.624;5.886;2023-02-28T01:46:15;20.27;;;13.38;;
62707;SDS011;48769;51.624;5.886;2023-02-28T01:48:45;19.13;;;13.90;;
62707;SDS011;48769;51.624;5.886;2023-02-28T01:51:26;18.15;;;13.30;;
62707;SDS011;48769;51.624;5.886;2023-02-28T01:54:05;23.15;;;14.38;;
62707;SDS011;48769;51.624;5.886;2023-02-28T01:56:38;22.33;;;12.35;;
62707;SDS011;48769;51.624;5.886;2023-02-28T01:59:07;20.38;;;13.73;;
62707;SDS011;48769;51.624;5.886;2023-02-28T02:01:33;26.70;;;13.05;;
62707;SDS011;48769;51.624;5.886;2023-02-28T02:04:01;18.27;;;12.43;;
62707;SDS011;48769;51.624;5.886;2023-02-28T02:06:29;19.42;;;12.43;;
62707;SDS011;48769;51.624;5.886;2023-02-28T02:08:58;19.15;;;12.70;;
62707;SDS011;48769;51.624;5.886;2023-02-28T02:11:23;17.75;;;13.23;;
62707;SDS011;48769;51.624;5.886;2023-02-28T02:16:37;19.55;;;12.27;;
62707;SDS011;48769;51.624;5.886;2023-02-28T02:22:00;17.48;;;11.75;;
62707;SDS011;48769;51.624;5.886;2023-02-28T02:24:45;20.73;;;12.05;;
62707;SDS011;48769;51.624;5.886;2023-02-28T02:30:42;19.13;;;11.48;;
62707;SDS011;48769;51.624;5.886;2023-02-28T02:36:05;17.67;;;12.13;;
62707;SDS011;48769;51.624;5.886;2023-02-28T02:44:42;21.95;;;12.27;;
62707;SDS011;48769;51.624;5.886;2023-02-28T02:46:55;15.82;;;11.50;;
62707;SDS011;48769;51.624;5.886;2023-02-28T02:49:27;14.88;;;11.45;;
62707;SDS011;48769;51.624;5.886;2023-02-28T02:51:57;16.27;;;12.05;;
62707;SDS011;48769;51.624;5.886;2023-02-28T02:54:29;18.65;;;11.90;;
62707;SDS011;48769;51.624;5.886;2023-02-28T02:57:01;17.40;;;11.97;;
62707;SDS011;48769;51.624;5.886;2023-02-28T02:59:33;19.30;;;11.82;;
62707;SDS011;48769;51.624;5.886;2023-02-28T03:02:03;17.25;;;10.63;;
62707;SDS011;48769;51.624;5.886;2023-02-28T03:04:32;15.43;;;10.57;;
62707;SDS011;48769;51.624;5.886;2023-02-28T03:07:03;16.65;;;12.23;;
62707;SDS011;48769;51.624;5.886;2023-02-28T03:09:28;15.50;;;10.90;;
62707;SDS011;48769;51.624;5.886;2023-02-28T03:11:54;20.13;;;11.13;;
62707;SDS011;48769;51.624;5.886;2023-02-28T03:28:23;17.27;;;9.82;;
62707;SDS011;48769;51.624;5.886;2023-02-28T03:31:29;17.17;;;10.95;;
62707;SDS011;48769;51.624;5.886;2023-02-28T03:36:30;14.05;;;10.13;;
62707;SDS011;48769;51.624;5.886;2023-02-28T03:39:09;15.23;;;10.02;;
62707;SDS011;48769;51.624;5.886;2023-02-28T03:41:43;18.40;;;9.50;;
62707;SDS011;48769;51.624;5.886;2023-02-28T03:44:30;16.38;;;10.52;;
62707;SDS011;48769;51.624;5.886;2023-02-28T03:47:10;15.73;;;9.63;;
62707;SDS011;48769;51.624;5.886;2023-02-28T03:49:53;15.32;;;9.80;;
62707;SDS011;48769;51.624;5.886;2023-02-28T03:52:23;16.88;;;9.57;;
62707;SDS011;48769;51.624;5.886;2023-02-28T03:54:56;16.27;;;9.20;;
62707;SDS011;48769;51.624;5.886;2023-02-28T03:57:32;18.00;;;9.40;;
62707;SDS011;48769;51.624;5.886;2023-02-28T03:59:59;13.10;;;9.32;;
62707;SDS011;48769;51.624;5.886;2023-02-28T04:02:32;16.75;;;9.52;;
62707;SDS011;48769;51.624;5.886;2023-02-28T04:04:57;13.20;;;9.60;;
62707;SDS011;48769;51.624;5.886;2023-02-28T04:07:24;14.50;;;9.05;;
62707;SDS011;48769;51.624;5.886;2023-02-28T04:09:50;12.52;;;9.63;;
62707;SDS011;48769;51.624;5.886;2023-02-28T04:12:15;16.25;;;9.38;;
62707;SDS011;48769;51.624;5.886;2023-02-28T04:14:41;15.43;;;10.00;;
62707;SDS011;48769;51.624;5.886;2023-02-28T04:17:06;15.38;;;10.20;;
62707;SDS011;48769;51.624;5.886;2023-02-28T04:19:32;17.20;;;10.05;;
62707;SDS011;48769;51.624;5.886;2023-02-28T04:21:57;14.13;;;9.48;;
62707;SDS011;48769;51.624;5.886;2023-02-28T04:24:24;15.60;;;9.15;;
62707;SDS011;48769;51.624;5.886;2023-02-28T04:26:52;17.38;;;10.13;;
62707;SDS011;48769;51.624;5.886;2023-02-28T04:29:29;17.10;;;9.52;;
62707;SDS011;48769;51.624;5.886;2023-02-28T04:31:57;13.45;;;9.95;;
62707;SDS011;48769;51.624;5.886;2023-02-28T04:34:24;13.80;;;9.93;;
62707;SDS011;48769;51.624;5.886;2023-02-28T04:36:52;15.40;;;9.80;;
62707;SDS011;48769;51.624;5.886;2023-02-28T04:39:23;17.70;;;9.50;;
62707;SDS011;48769;51.624;5.886;2023-02-28T04:41:49;13.25;;;9.48;;
62707;SDS011;48769;51.624;5.886;2023-02-28T04:44:15;15.75;;;10.73;;
62707;SDS011;48769;51.624;5.886;2023-02-28T04:46:41;12.40;;;8.68;;
62707;SDS011;48769;51.624;5.886;2023-02-28T04:49:08;15.13;;;9.90;;
62707;SDS011;48769;51.624;5.886;2023-02-28T04:51:35;12.57;;;9.18;;
62707;SDS011;48769;51.624;5.886;2023-02-28T04:54:01;11.13;;;9.10;;
62707;SDS011;48769;51.624;5.886;2023-02-28T04:56:26;13.75;;;9.02;;
62707;SDS011;48769;51.624;5.886;2023-02-28T04:58:51;13.80;;;8.85;;
62707;SDS011;48769;51.624;5.886;2023-02-28T05:03:50;16.60;;;9.32;;
62707;SDS011;48769;51.624;5.886;2023-02-28T05:06:17;14.27;;;9.07;;
62707;SDS011;48769;51.624;5.886;2023-02-28T05:08:45;12.65;;;9.05;;
62707;SDS011;48769;51.624;5.886;2023-02-28T05:11:15;11.70;;;8.05;;
62707;SDS011;48769;51.624;5.886;2023-02-28T05:13:43;12.50;;;8.43;;
62707;SDS011;48769;51.624;5.886;2023-02-28T05:16:08;12.95;;;8.90;;
62707;SDS011;48769;51.624;5.886;2023-02-28T05:18:33;14.63;;;8.90;;
62707;SDS011;48769;51.624;5.886;2023-02-28T05:20:59;15.02;;;9.10;;
62707;SDS011;48769;51.624;5.886;2023-02-28T05:23:27;13.07;;;8.73;;
62707;SDS011;48769;51.624;5.886;2023-02-28T05:25:52;13.32;;;8.18;;
62707;SDS011;48769;51.624;5.886;2023-02-28T05:28:18;13.60;;;7.85;;
62707;SDS011;48769;51.624;5.886;2023-02-28T05:30:44;11.50;;;7.85;;
62707;SDS011;48769;51.624;5.886;2023-02-28T05:33:10;12.02;;;8.30;;
62707;SDS011;48769;51.624;5.886;2023-02-28T05:35:37;12.55;;;8.07;;
62707;SDS011;48769;51.624;5.886;2023-02-28T05:38:04;16.58;;;8.18;;
62707;SDS011;48769;51.624;5.886;2023-02-28T05:40:29;11.45;;;7.28;;
62707;SDS011;48769;51.624;5.886;2023-02-28T05:42:54;11.15;;;7.80;;
62707;SDS011;48769;51.624;5.886;2023-02-28T05:45:20;12.07;;;8.07;;
62707;SDS011;48769;51.624;5.886;2023-02-28T05:47:45;10.40;;;8.20;;
62707;SDS011;48769;51.624;5.886;2023-02-28T05:50:10;12.55;;;8.20;;
62707;SDS011;48769;51.624;5.886;2023-02-28T05:52:36;14.15;;;9.30;;
62707;SDS011;48769;51.624;5.886;2023-02-28T05:55:02;16.10;;;9.02;;
62707;SDS011;48769;51.624;5.886;2023-02-28T05:57:28;13.40;;;9.13;;
62707;SDS011;48769;51.624;5.886;2023-02-28T05:59:53;15.52;;;9.48;;
62707;SDS011;48769;51.624;5.886;2023-02-28T06:02:19;16.95;;;9.60;;
62707;SDS011;48769;51.624;5.886;2023-02-28T06:04:44;10.85;;;8.77;;
62707;SDS011;48769;51.624;5.886;2023-02-28T06:07:10;15.98;;;9.55;;
62707;SDS011;48769;51.624;5.886;2023-02-28T06:09:36;15.38;;;9.77;;
62707;SDS011;48769;51.624;5.886;2023-02-28T06:12:03;14.95;;;9.30;;
62707;SDS011;48769;51.624;5.886;2023-02-28T06:14:30;22.73;;;9.90;;
62707;SDS011;48769;51.624;5.886;2023-02-28T06:16:57;13.45;;;8.70;;
62707;SDS011;48769;51.624;5.886;2023-02-28T06:19:22;16.00;;;9.50;;
62707;SDS011;48769;51.624;5.886;2023-02-28T06:21:50;17.25;;;9.00;;
62707;SDS011;48769;51.624;5.886;2023-02-28T06:24:17;17.02;;;9.48;;
62707;SDS011;48769;51.624;5.886;2023-02-28T06:26:46;14.43;;;9.25;;
62707;SDS011;48769;51.624;5.886;2023-02-28T06:29:12;14.80;;;9.05;;
62707;SDS011;48769;51.624;5.886;2023-02-28T06:31:42;19.33;;;9.55;;
62707;SDS011;48769;51.624;5.886;2023-02-28T06:34:09;13.18;;;9.27;;
62707;SDS011;48769;51.624;5.886;2023-02-28T06:36:37;14.35;;;9.55;;
62707;SDS011;48769;51.624;5.886;2023-02-28T06:39:03;15.65;;;8.65;;
62707;SDS011;48769;51.624;5.886;2023-02-28T06:41:28;13.82;;;9.27;;
62707;SDS011;48769;51.624;5.886;2023-02-28T06:43:54;13.88;;;9.20;;
62707;SDS011;48769;51.624;5.886;2023-02-28T06:46:20;17.48;;;8.23;;
62707;SDS011;48769;51.624;5.886;2023-02-28T06:48:46;11.68;;;8.07;;
62707;SDS011;48769;51.624;5.886;2023-02-28T06:51:16;12.95;;;9.00;;
62707;SDS011;48769;51.624;5.886;2023-02-28T06:53:45;13.73;;;8.93;;
62707;SDS011;48769;51.624;5.886;2023-02-28T06:56:11;14.55;;;8.60;;
62707;SDS011;48769;51.624;5.886;2023-02-28T06:58:38;12.68;;;8.52;;
62707;SDS011;48769;51.624;5.886;2023-02-28T07:01:04;14.25;;;9.05;;
62707;SDS011;48769;51.624;5.886;2023-02-28T07:03:30;13.20;;;9.05;;
62707;SDS011;48769;51.624;5.886;2023-02-28T07:05:56;12.65;;;8.25;;
62707;SDS011;48769;51.624;5.886;2023-02-28T07:08:22;11.07;;;7.63;;
62707;SDS011;48769;51.624;5.886;2023-02-28T07:10:53;14.25;;;7.93;;
62707;SDS011;48769;51.624;5.886;2023-02-28T07:13:19;16.05;;;8.65;;
62707;SDS011;48769;51.624;5.886;2023-02-28T07:15:52;10.80;;;8.63;;
62707;SDS011;48769;51.624;5.886;2023-02-28T07:18:27;15.07;;;8.10;;
62707;SDS011;48769;51.624;5.886;2023-02-28T07:20:53;14.20;;;8.00;;
62707;SDS011;48769;51.624;5.886;2023-02-28T07:23:19;9.57;;;7.90;;
62707;SDS011;48769;51.624;5.886;2023-02-28T07:25:45;12.77;;;7.45;;
62707;SDS011;48769;51.624;5.886;2023-02-28T07:28:12;14.55;;;7.43;;
62707;SDS011;48769;51.624;5.886;2023-02-28T07:30:38;15.63;;;7.22;;
62707;SDS011;48769;51.624;5.886;2023-02-28T07:33:04;10.55;;;6.70;;
62707;SDS011;48769;51.624;5.886;2023-02-28T07:35:30;15.88;;;6.13;;
62707;SDS011;48769;51.624;5.886;2023-02-28T07:37:59;9.23;;;6.10;;
62707;SDS011;48769;51.624;5.886;2023-02-28T07:40:25;11.57;;;6.10;;
62707;SDS011;48769;51.624;5.886;2023-02-28T07:42:51;10.85;;;5.93;;
62707;SDS011;48769;51.624;5.886;2023-02-28T07:45:16;11.07;;;6.40;;
62707;SDS011;48769;51.624;5.886;2023-02-28T07:47:42;10.02;;;6.55;;
62707;SDS011;48769;51.624;5.886;2023-02-28T07:50:09;7.78;;;5.97;;
62707;SDS011;48769;51.624;5.886;2023-02-28T07:52:36;8.88;;;5.18;;
62707;SDS011;48769;51.624;5.886;2023-02-28T07:55:03;12.75;;;6.03;;
62707;SDS011;48769;51.624;5.886;2023-02-28T07:57:30;9.48;;;5.72;;
62707;SDS011;48769;51.624;5.886;2023-02-28T07:59:55;7.97;;;5.30;;
62707;SDS011;48769;51.624;5.886;2023-02-28T08:02:21;9.80;;;5.40;;
62707;SDS011;48769;51.624;5.886;2023-02-28T08:04:46;8.60;;;5.15;;
62707;SDS011;48769;51.624;5.886;2023-02-28T08:07:13;6.90;;;5.28;;
62707;SDS011;48769;51.624;5.886;2023-02-28T08:09:39;8.27;;;4.82;;
62707;SDS011;48769;51.624;5.886;2023-02-28T08:12:05;9.02;;;5.60;;
62707;SDS011;48769;51.624;5.886;2023-02-28T08:14:31;9.77;;;5.10;;
62707;SDS011;48769;51.624;5.886;2023-02-28T08:16:57;9.30;;;5.40;;
62707;SDS011;48769;51.624;5.886;2023-02-28T08:19:22;5.85;;;4.78;;
62707;SDS011;48769;51.624;5.886;2023-02-28T08:21:48;13.20;;;5.13;;
62707;SDS011;48769;51.624;5.886;2023-02-28T08:24:13;9.13;;;4.93;;
62707;SDS011;48769;51.624;5.886;2023-02-28T08:26:38;7.40;;;5.20;;
62707;SDS011;48769;51.624;5.886;2023-02-28T08:29:03;6.35;;;4.82;;
62707;SDS011;48769;51.624;5.886;2023-02-28T08:31:29;8.20;;;5.10;;
62707;SDS011;48769;51.624;5.886;2023-02-28T08:33:54;6.13;;;4.40;;
62707;SDS011;48769;51.624;5.886;2023-02-28T08:36:23;6.53;;;4.70;;
62707;SDS011;48769;51.624;5.886;2023-02-28T08:38:49;7.57;;;4.07;;
62707;SDS011;48769;51.624;5.886;2023-02-28T08:41:14;10.48;;;4.45;;
62707;SDS011;48769;51.624;5.886;2023-02-28T08:43:40;5.35;;;4.10;;
62707;SDS011;48769;51.624;5.886;2023-02-28T08:46:06;6.18;;;4.10;;
62707;SDS011;48769;51.624;5.886;2023-02-28T08:48:32;6.57;;;4.20;;
62707;SDS011;48769;51.624;5.886;2023-02-28T08:51:04;4.50;;;4.05;;
62707;SDS011;48769;51.624;5.886;2023-02-28T08:53:31;6.63;;;4.00;;
62707;SDS011;48769;51.624;5.886;2023-02-28T08:58:27;4.95;;;3.47;;
62707;SDS011;48769;51.624;5.886;2023-02-28T09:00:53;4.90;;;3.30;;
62707;SDS011;48769;51.624;5.886;2023-02-28T09:03:19;4.38;;;3.20;;
62707;SDS011;48769;51.624;5.886;2023-02-28T09:05:58;3.92;;;3.10;;
62707;SDS011;48769;51.624;5.886;2023-02-28T09:08:26;3.40;;;3.10;;
62707;SDS011;48769;51.624;5.886;2023-02-28T09:10:53;4.55;;;3.08;;
62707;SDS011;48769;51.624;5.886;2023-02-28T09:13:22;6.18;;;2.95;;
62707;SDS011;48769;51.624;5.886;2023-02-28T09:15:47;3.78;;;2.63;;
62707;SDS011;48769;51.624;5.886;2023-02-28T09:18:13;3.17;;;2.50;;
62707;SDS011;48769;51.624;5.886;2023-02-28T09:20:39;4.43;;;2.67;;
62707;SDS011;48769;51.624;5.886;2023-02-28T09:23:06;3.17;;;2.40;;
62707;SDS011;48769;51.624;5.886;2023-02-28T09:25:33;4.28;;;2.58;;
62707;SDS011;48769;51.624;5.886;2023-02-28T09:27:59;4.63;;;2.65;;
62707;SDS011;48769;51.624;5.886;2023-02-28T09:30:24;3.75;;;2.78;;
62707;SDS011;48769;51.624;5.886;2023-02-28T09:32:50;5.82;;;3.05;;
62707;SDS011;48769;51.624;5.886;2023-02-28T09:35:22;2.70;;;2.00;;
62707;SDS011;48769;51.624;5.886;2023-02-28T09:40:17;2.60;;;2.17;;
62707;SDS011;48769;51.624;5.886;2023-02-28T09:42:48;2.70;;;2.47;;
62707;SDS011;48769;51.624;5.886;2023-02-28T09:47:54;4.38;;;2.30;;
62707;SDS011;48769;51.624;5.886;2023-02-28T09:52:51;2.40;;;2.00;;
62707;SDS011;48769;51.624;5.886;2023-02-28T09:57:47;3.03;;;2.03;;
62707;SDS011;48769;51.624;5.886;2023-02-28T10:03:28;2.97;;;2.13;;
62707;SDS011;48769;51.624;5.886;2023-02-28T10:06:07;3.90;;;2.40;;
62707;SDS011;48769;51.624;5.886;2023-02-28T10:11:16;2.85;;;2.20;;
62707;SDS011;48769;51.624;5.886;2023-02-28T10:13:53;2.58;;;1.85;;
62707;SDS011;48769;51.624;5.886;2023-02-28T10:16:31;2.35;;;1.85;;
62707;SDS011;48769;51.624;5.886;2023-02-28T10:19:17;2.78;;;2.15;;
62707;SDS011;48769;51.624;5.886;2023-02-28T10:24:40;2.75;;;2.10;;
62707;SDS011;48769;51.624;5.886;2023-02-28T10:27:20;2.58;;;2.13;;
62707;SDS011;48769;51.624;5.886;2023-02-28T10:29:51;2.55;;;1.73;;
62707;SDS011;48769;51.624;5.886;2023-02-28T10:32:19;5.75;;;2.20;;
62707;SDS011;48769;51.624;5.886;2023-02-28T10:34:52;3.97;;;2.17;;
62707;SDS011;48769;51.624;5.886;2023-02-28T10:37:22;2.55;;;2.00;;
62707;SDS011;48769;51.624;5.886;2023-02-28T10:39:47;2.25;;;1.90;;
62707;SDS011;48769;51.624;5.886;2023-02-28T10:42:26;3.80;;;2.20;;
62707;SDS011;48769;51.624;5.886;2023-02-28T10:45:06;4.22;;;2.03;;
62707;SDS011;48769;51.624;5.886;2023-02-28T10:48:01;3.20;;;2.60;;
62707;SDS011;48769;51.624;5.886;2023-02-28T10:53:00;2.78;;;2.53;;
62707;SDS011;48769;51.624;5.886;2023-02-28T10:55:33;5.05;;;2.22;;
62707;SDS011;48769;51.624;5.886;2023-02-28T10:57:58;3.95;;;2.42;;
62707;SDS011;48769;51.624;5.886;2023-02-28T11:00:24;3.67;;;2.30;;
62707;SDS011;48769;51.624;5.886;2023-02-28T11:02:50;3.03;;;2.05;;
62707;SDS011;48769;51.624;5.886;2023-02-28T11:05:27;5.07;;;2.30;;
62707;SDS011;48769;51.624;5.886;2023-02-28T11:07:55;4.25;;;2.00;;
62707;SDS011;48769;51.624;5.886;2023-02-28T11:10:25;3.78;;;2.65;;
62707;SDS011;48769;51.624;5.886;2023-02-28T11:12:54;5.00;;;2.60;;
62707;SDS011;48769;51.624;5.886;2023-02-28T11:15:23;3.58;;;2.00;;
62707;SDS011;48769;51.624;5.886;2023-02-28T11:17:55;4.88;;;2.15;;
62707;SDS011;48769;51.624;5.886;2023-02-28T11:20:24;2.22;;;2.03;;
62707;SDS011;48769;51.624;5.886;2023-02-28T11:22:52;4.65;;;2.60;;
62707;SDS011;48769;51.624;5.886;2023-02-28T11:25:21;2.60;;;2.20;;
62707;SDS011;48769;51.624;5.886;2023-02-28T11:27:57;3.90;;;2.40;;
62707;SDS011;48769;51.624;5.886;2023-02-28T11:30:27;2.92;;;2.47;;
62707;SDS011;48769;51.624;5.886;2023-02-28T11:33:21;2.60;;;2.28;;
62707;SDS011;48769;51.624;5.886;2023-02-28T11:35:51;2.80;;;2.28;;
62707;SDS011;48769;51.624;5.886;2023-02-28T11:38:18;2.80;;;2.40;;
62707;SDS011;48769;51.624;5.886;2023-02-28T11:40:58;3.17;;;2.42;;
62707;SDS011;48769;51.624;5.886;2023-02-28T11:57:48;2.80;;;2.50;;
62707;SDS011;48769;51.624;5.886;2023-02-28T12:06:36;2.83;;;2.63;;
62707;SDS011;48769;51.624;5.886;2023-02-28T12:12:29;3.45;;;2.60;;
62707;SDS011;48769;51.624;5.886;2023-02-28T12:20:26;3.63;;;2.40;;
62707;SDS011;48769;51.624;5.886;2023-02-28T12:28:21;2.50;;;2.30;;
62707;SDS011;48769;51.624;5.886;2023-02-28T12:33:46;5.35;;;2.15;;
62707;SDS011;48769;51.624;5.886;2023-02-28T12:36:16;6.18;;;2.65;;
62707;SDS011;48769;51.624;5.886;2023-02-28T12:44:23;3.55;;;2.40;;
62707;SDS011;48769;51.624;5.886;2023-02-28T12:46:56;3.88;;;2.50;;
62707;SDS011;48769;51.624;5.886;2023-02-28T12:49:33;2.58;;;2.38;;
62707;SDS011;48769;51.624;5.886;2023-02-28T12:52:04;3.53;;;2.47;;
62707;SDS011;48769;51.624;5.886;2023-02-28T12:57:06;3.10;;;2.60;;
62707;SDS011;48769;51.624;5.886;2023-02-28T12:59:45;4.28;;;2.80;;
62707;SDS011;48769;51.624;5.886;2023-02-28T13:11:06;4.40;;;2.58;;
62707;SDS011;48769;51.624;5.886;2023-02-28T13:13:32;3.78;;;2.65;;
62707;SDS011;48769;51.624;5.886;2023-02-28T13:16:05;4.28;;;2.28;;
62707;SDS011;48769;51.624;5.886;2023-02-28T13:21:09;7.85;;;2.50;;
62707;SDS011;48769;51.624;5.886;2023-02-28T13:26:28;2.50;;;2.30;;
62707;SDS011;48769;51.624;5.886;2023-02-28T13:34:31;4.28;;;2.50;;
62707;SDS011;48769;51.624;5.886;2023-02-28T13:39:50;5.38;;;3.00;;
62707;SDS011;48769;51.624;5.886;2023-02-28T13:47:44;5.43;;;2.78;;
62707;SDS011;48769;51.624;5.886;2023-02-28T13:50:21;4.65;;;2.95;;
62707;SDS011;48769;51.624;5.886;2023-02-28T14:00:54;3.15;;;2.42;;
62707;SDS011;48769;51.624;5.886;2023-02-28T14:06:28;4.25;;;3.05;;
62707;SDS011;48769;51.624;5.886;2023-02-28T14:11:26;2.70;;;2.42;;
62707;SDS011;48769;51.624;5.886;2023-02-28T14:13:56;4.20;;;2.88;;
62707;SDS011;48769;51.624;5.886;2023-02-28T14:16:23;3.58;;;3.15;;
62707;SDS011;48769;51.624;5.886;2023-02-28T14:21:26;4.07;;;3.25;;
62707;SDS011;48769;51.624;5.886;2023-02-28T14:26:58;5.68;;;3.22;;
62707;SDS011;48769;51.624;5.886;2023-02-28T14:39:19;3.95;;;3.30;;
62707;SDS011;48769;51.624;5.886;2023-02-28T14:41:47;3.40;;;3.10;;
62707;SDS011;48769;51.624;5.886;2023-02-28T14:44:22;5.15;;;3.33;;
62707;SDS011;48769;51.624;5.886;2023-02-28T14:46:57;4.28;;;3.30;;
62707;SDS011;48769;51.624;5.886;2023-02-28T14:49:45;6.15;;;3.78;;
62707;SDS011;48769;51.624;5.886;2023-02-28T14:52:20;5.43;;;3.80;;
62707;SDS011;48769;51.624;5.886;2023-02-28T14:54:58;5.35;;;3.60;;
62707;SDS011;48769;51.624;5.886;2023-02-28T14:57:29;5.32;;;4.10;;
62707;SDS011;48769;51.624;5.886;2023-02-28T15:00:15;5.38;;;4.05;;
62707;SDS011;48769;51.624;5.886;2023-02-28T15:02:46;5.68;;;4.15;;
62707;SDS011;48769;51.624;5.886;2023-02-28T15:07:43;4.60;;;3.63;;
62707;SDS011;48769;51.624;5.886;2023-02-28T15:10:20;5.32;;;4.05;;
62707;SDS011;48769;51.624;5.886;2023-02-28T15:13:30;5.35;;;3.65;;
62707;SDS011;48769;51.624;5.886;2023-02-28T15:15:44;5.90;;;4.25;;
62707;SDS011;48769;51.624;5.886;2023-02-28T15:18:20;4.53;;;3.90;;
62707;SDS011;48769;51.624;5.886;2023-02-28T15:21:07;4.47;;;3.70;;
62707;SDS011;48769;51.624;5.886;2023-02-28T15:23:40;6.13;;;3.70;;
62707;SDS011;48769;51.624;5.886;2023-02-28T15:26:11;4.93;;;3.75;;
62707;SDS011;48769;51.624;5.886;2023-02-28T15:28:41;8.75;;;4.00;;
62707;SDS011;48769;51.624;5.886;2023-02-28T15:31:18;6.80;;;3.63;;
62707;SDS011;48769;51.624;5.886;2023-02-28T15:33:57;4.50;;;3.42;;
62707;SDS011;48769;51.624;5.886;2023-02-28T15:36:32;4.20;;;3.80;;
62707;SDS011;48769;51.624;5.886;2023-02-28T15:39:02;4.32;;;3.55;;
62707;SDS011;48769;51.624;5.886;2023-02-28T15:41:42;5.55;;;4.25;;
62707;SDS011;48769;51.624;5.886;2023-02-28T15:46:43;5.18;;;4.22;;
62707;SDS011;48769;51.624;5.886;2023-02-28T15:49:19;4.43;;;3.78;;
62707;SDS011;48769;51.624;5.886;2023-02-28T15:51:45;4.82;;;3.40;;
62707;SDS011;48769;51.624;5.886;2023-02-28T15:54:14;4.50;;;4.10;;
62707;SDS011;48769;51.624;5.886;2023-02-28T15:56:52;7.10;;;3.75;;
62707;SDS011;48769;51.624;5.886;2023-02-28T15:59:24;6.38;;;4.50;;
62707;SDS011;48769;51.624;5.886;2023-02-28T16:02:04;6.35;;;4.40;;
62707;SDS011;48769;51.624;5.886;2023-02-28T16:04:37;4.30;;;3.90;;
62707;SDS011;48769;51.624;5.886;2023-02-28T16:07:18;5.57;;;3.88;;
62707;SDS011;48769;51.624;5.886;2023-02-28T16:09:44;6.50;;;3.80;;
62707;SDS011;48769;51.624;5.886;2023-02-28T16:12:09;3.70;;;3.40;;
62707;SDS011;48769;51.624;5.886;2023-02-28T16:14:38;4.47;;;3.88;;
62707;SDS011;48769;51.624;5.886;2023-02-28T16:17:08;4.93;;;3.58;;
62707;SDS011;48769;51.624;5.886;2023-02-28T16:19:44;4.85;;;3.33;;
62707;SDS011;48769;51.624;5.886;2023-02-28T16:22:09;8.52;;;4.22;;
62707;SDS011;48769;51.624;5.886;2023-02-28T16:24:35;4.38;;;3.80;;
62707;SDS011;48769;51.624;5.886;2023-02-28T16:27:00;6.72;;;3.50;;
62707;SDS011;48769;51.624;5.886;2023-02-28T16:29:30;4.30;;;3.70;;
62707;SDS011;48769;51.624;5.886;2023-02-28T16:31:57;9.15;;;4.18;;
62707;SDS011;48769;51.624;5.886;2023-02-28T16:34:23;6.82;;;4.32;;
62707;SDS011;48769;51.624;5.886;2023-02-28T16:36:49;5.95;;;3.90;;
62707;SDS011;48769;51.624;5.886;2023-02-28T16:39:16;5.45;;;4.07;;
62707;SDS011;48769;51.624;5.886;2023-02-28T16:41:42;5.40;;;3.63;;
62707;SDS011;48769;51.624;5.886;2023-02-28T16:44:10;5.93;;;4.10;;
62707;SDS011;48769;51.624;5.886;2023-02-28T16:46:39;4.28;;;3.70;;
62707;SDS011;48769;51.624;5.886;2023-02-28T16:49:04;6.28;;;4.97;;
62707;SDS011;48769;51.624;5.886;2023-02-28T16:51:30;7.72;;;4.28;;
62707;SDS011;48769;51.624;5.886;2023-02-28T16:53:55;5.60;;;4.65;;
62707;SDS011;48769;51.624;5.886;2023-02-28T16:56:21;6.68;;;3.72;;
62707;SDS011;48769;51.624;5.886;2023-02-28T16:58:49;5.72;;;4.50;;
62707;SDS011;48769;51.624;5.886;2023-02-28T17:01:15;7.05;;;4.30;;
62707;SDS011;48769;51.624;5.886;2023-02-28T17:03:42;4.63;;;3.78;;
62707;SDS011;48769;51.624;5.886;2023-02-28T17:06:16;7.05;;;4.40;;
62707;SDS011;48769;51.624;5.886;2023-02-28T17:08:47;6.00;;;4.60;;
62707;SDS011;48769;51.624;5.886;2023-02-28T17:11:13;8.80;;;4.68;;
62707;SDS011;48769;51.624;5.886;2023-02-28T17:13:39;8.48;;;4.75;;
62707;SDS011;48769;51.624;5.886;2023-02-28T17:16:04;7.13;;;4.70;;
62707;SDS011;48769;51.624;5.886;2023-02-28T17:18:30;6.97;;;4.28;;
62707;SDS011;48769;51.624;5.886;2023-02-28T17:20:58;9.70;;;4.75;;
62707;SDS011;48769;51.624;5.886;2023-02-28T17:23:24;5.20;;;4.55;;
62707;SDS011;48769;51.624;5.886;2023-02-28T17:25:50;10.30;;;4.95;;
62707;SDS011;48769;51.624;5.886;2023-02-28T17:28:19;8.95;;;5.07;;
62707;SDS011;48769;51.624;5.886;2023-02-28T17:30:46;5.35;;;4.63;;
62707;SDS011;48769;51.624;5.886;2023-02-28T17:33:12;5.95;;;4.60;;
62707;SDS011;48769;51.624;5.886;2023-02-28T17:35:38;7.30;;;4.78;;
62707;SDS011;48769;51.624;5.886;2023-02-28T17:38:03;5.47;;;4.60;;